Time;durP1;ratioP1;P1;durP2;ratioP2;P2;SDS_P1;SDS_P2;PMS_P1;PMS_P2;Temp;Humidity;BMP_temperature;BMP_pressure;BME280_temperature;BME280_humidity;BME280_pressure;Samples;Min_cycle;Max_cycle;Signal;HPM_P1;HPM_P2
2023/05/04 00:04:20;;;;;;;;;;;;;;;8.48;96.89;99213.48;105667;1300;25469;-88
2023/05/04 00:07:46;;;;;;;;;;;;;;;8.46;96.55;99214.03;105800;1307;123771;-90
2023/05/04 00:14:43;;;;;;;;;;;;;;;8.33;94.83;99210.60;100303;1324;5473226;-88
2023/05/04 00:25:41;;;;;;;;;;;;;;;8.09;91.87;99207.42;105709;1306;124365;-87
2023/05/04 00:29:10;;;;;;;;;;;;;;;8.02;91.06;99205.48;105714;1302;22531;-89
2023/05/04 00:32:38;;;;;;;;;;;;;;;7.95;90.53;99204.86;105324;1293;123795;-88
2023/05/04 00:36:06;;;;;;;;;;;;;;;7.88;89.97;99204.39;100649;1317;5466834;-88
2023/05/04 00:39:34;;;;;;;;;;;;;;;7.80;89.30;99198.92;104767;1319;22571;-88
2023/05/04 00:42:58;;;;;;;;;;;;;;;7.76;89.28;99196.23;104188;1304;123776;-89
2023/05/04 00:46:14;;;;;;;;;;;;;;;;;;;;;
2023/05/04 00:49:54;;;;;;;;;;;;;;;7.65;88.18;99193.43;103794;1327;123501;-89
2023/05/04 01:07:41;;;;;;;;;;;;;;;;;;;;;
2023/05/04 01:15:29;;;;;;;;;;;;;;;7.39;87.38;99185.11;103797;1326;565565;-88
2023/05/04 01:18:33;;;;;;;;;;;;;;;7.34;87.19;99187.05;105748;1303;123572;-89
2023/05/04 01:22:27;;;;;;;;;;;;;;;7.31;87.06;99186.55;105146;1300;22533;-88
2023/05/04 01:28:59;;;;;;;;;;;;;;;7.21;86.87;99186.57;100181;1312;5553302;-88
2023/05/04 01:43:53;;;;;;;;;;;;;;;7.09;86.24;99187.67;104094;1313;557232;-88
2023/05/04 01:47:20;;;;;;;;;;;;;;;7.03;86.18;99186.73;106530;1291;22570;-87
2023/05/04 01:50:49;;;;;;;;;;;;;;;6.98;86.48;99177.77;105780;1305;123544;-88
2023/05/04 01:57:50;;;;;;;;;;;;;;;6.91;86.64;99179.54;100866;1316;5476699;-89
2023/05/04 02:01:17;;;;;;;;;;;;;;;6.84;85.76;99177.46;104589;1318;124008;-89
2023/05/04 02:04:43;;;;;;;;;;;;;;;6.75;85.47;99176.02;104610;1297;22743;-86
2023/05/04 02:07:45;;;;;;;;;;;;;;;6.70;85.27;99176.17;104414;1316;123408;-88
2023/05/04 02:11:39;;;;;;;;;;;;;;;6.65;85.22;99175.40;103971;1323;22720;-88
2023/05/04 02:40:53;;;;;;;;;;;;;;;6.16;83.90;99173.02;105389;1307;22556;-90
2023/05/04 02:43:57;;;;;;;;;;;;;;;6.10;83.57;99169.58;101371;1308;5485314;-90
2023/05/04 02:47:57;;;;;;;;;;;;;;;6.03;83.31;99166.45;104681;1313;22547;-89
2023/05/04 02:55:28;;;;;;;;;;;;;;;5.92;82.94;99165.11;104123;1302;545695;-90
2023/05/04 02:58:59;;;;;;;;;;;;;;;5.82;82.82;99165.33;105659;1305;22600;-89
2023/05/04 03:02:28;;;;;;;;;;;;;;;5.77;82.94;99163.52;106482;1296;123324;-89
2023/05/04 03:09:21;;;;;;;;;;;;;;;5.71;83.57;99166.11;100487;1316;5519160;-89
2023/05/04 03:16:49;;;;;;;;;;;;;;;5.63;83.17;99174.95;103948;1302;544440;-89
2023/05/04 03:20:18;;;;;;;;;;;;;;;5.57;83.46;99180.33;105590;1304;123409;-89
2023/05/04 03:34:44;;;;;;;;;;;;;;;5.39;83.89;99182.93;103992;1304;546089;-88
2023/05/04 03:52:19;;;;;;;;;;;;;;;5.23;83.89;99180.59;104723;1295;545420;-89
2023/05/04 03:56:14;;;;;;;;;;;;;;;5.17;84.37;99179.92;106635;1291;123444;-89
2023/05/04 04:03:18;;;;;;;;;;;;;;;5.18;84.60;99177.77;105854;1288;123233;-89
2023/05/04 04:06:23;;;;;;;;;;;;;;;5.19;84.53;99182.14;101175;1308;5594240;-90
2023/05/04 04:10:24;;;;;;;;;;;;;;;5.21;84.49;99183.91;104566;1316;22556;-89
2023/05/04 04:28:12;;;;;;;;;;;;;;;;;;;;;
2023/05/04 04:31:39;;;;;;;;;;;;;;;;;;;;;
2023/05/04 04:39:25;;;;;;;;;;;;;;;5.37;85.28;99187.60;104047;1316;547150;-88
2023/05/04 04:46:29;;;;;;;;;;;;;;;5.42;86.13;99191.38;104971;1311;23981;-89
2023/05/04 04:49:31;;;;;;;;;;;;;;;5.47;86.11;99198.63;103957;1302;123722;-90
2023/05/04 04:53:23;;;;;;;;;;;;;;;5.53;86.04;99200.92;100027;1321;5467989;-88
2023/05/04 04:56:49;;;;;;;;;;;;;;;5.61;86.06;99204.98;103845;1325;123949;-88
2023/05/04 05:00:16;;;;;;;;;;;;;;;5.69;86.15;99209.46;103799;1306;22670;-90
2023/05/04 05:03:19;;;;;;;;;;;;;;;5.78;86.20;99205.95;103065;1331;123695;-89
2023/05/04 05:21:44;;;;;;;;;;;;;;;6.29;84.32;99212.05;104405;1298;123314;-88
2023/05/04 05:28:38;;;;;;;;;;;;;;;6.58;82.16;99218.30;103392;1329;22588;-87
2023/05/04 05:39:39;;;;;;;;;;;;;;;7.07;80.26;99220.75;103606;1307;546195;-90
2023/05/04 05:50:09;;;;;;;;;;;;;;;7.43;78.97;99214.41;105378;1287;123537;-87
2023/05/04 06:07:43;;;;;;;;;;;;;;;7.97;76.22;99222.09;105118;1308;123430;-88
2023/05/04 06:11:36;;;;;;;;;;;;;;;8.05;76.73;99217.52;105217;1293;22699;-90
2023/05/04 06:47:31;;;;;;;;;;;;;;;9.44;76.26;99212.40;104344;1302;545248;-88
2023/05/04 06:51:02;;;;;;;;;;;;;;;9.54;75.00;99210.61;106205;1303;123956;-90
2023/05/04 07:09:07;;;;;;;;;;;;;;;10.09;75.00;99204.69;104353;1305;558857;-89
2023/05/04 07:16:13;;;;;;;;;;;;;;;10.37;74.69;99207.89;104867;1305;123968;-89
2023/05/04 07:23:07;;;;;;;;;;;;;;;10.60;73.60;99202.74;100544;1318;5481078;-94
2023/05/04 07:26:35;;;;;;;;;;;;;;;10.72;73.91;99209.05;104000;1323;124418;-90
2023/05/04 07:37:39;;;;;;;;;;;;;;;11.14;73.09;99203.55;105510;1286;544868;-92
2023/05/04 07:44:10;;;;;;;;;;;;;;;;;;;;;
2023/05/04 07:47:48;;;;;;;;;;;;;;;;;;;;;
2023/05/04 07:51:33;;;;;;;;;;;;;;;11.65;69.74;99202.89;101227;1309;5469418;-90
2023/05/04 08:02:03;;;;;;;;;;;;;;;;;;;;;
2023/05/04 08:05:44;;;;;;;;;;;;;;;12.25;67.28;99206.59;107331;1298;22567;-90
2023/05/04 08:08:52;;;;;;;;;;;;;;;12.47;66.96;99209.17;106380;1301;123654;-89
2023/05/04 08:12:19;;;;;;;;;;;;;;;;;;;;;
2023/05/04 08:15:33;;;;;;;;;;;;;;;;;;;;;
2023/05/04 08:19:27;;;;;;;;;;;;;;;12.75;64.81;99211.20;105710;1303;22574;-88
2023/05/04 08:22:26;;;;;;;;;;;;;;;;;;;;;
2023/05/04 08:25:42;;;;;;;;;;;;;;;;;;;;;
2023/05/04 08:29:19;;;;;;;;;;;;;;;13.21;63.81;99202.27;103865;1308;22627;-90
2023/05/04 08:32:16;;;;;;;;;;;;;;;;;;;;;
2023/05/04 08:35:36;;;;;;;;;;;;;;;;;;;;;
2023/05/04 08:43:33;;;;;;;;;;;;;;;14.09;60.25;99208.56;104396;1295;556967;-88
2023/05/04 08:47:02;;;;;;;;;;;;;;;14.10;59.91;99205.67;105964;1296;25289;-90
2023/05/04 08:53:36;;;;;;;;;;;;;;;14.45;59.66;99212.06;105184;1290;22554;-89
2023/05/04 09:00:30;;;;;;;;;;;;;;;;;;;;;
2023/05/04 09:03:43;;;;;;;;;;;;;;;;;;;;;
2023/05/04 09:07:35;;;;;;;;;;;;;;;14.45;56.16;99201.87;103794;1321;22777;-88
2023/05/04 09:11:07;;;;;;;;;;;;;;;14.37;55.79;99199.63;103947;1333;123191;-90
2023/05/04 09:25:30;;;;;;;;;;;;;;;15.46;53.67;99197.20;108255;1280;22581;-88
2023/05/04 09:28:43;;;;;;;;;;;;;;;;;;;;;
2023/05/04 09:31:35;;;;;;;;;;;;;;;;;;;;;
2023/05/04 09:34:33;;;;;;;;;;;;;;;;;;;;;
2023/05/04 09:37:44;;;;;;;;;;;;;;;;;;;;;
2023/05/04 09:41:37;;;;;;;;;;;;;;;16.12;52.69;99194.65;108326;1279;22505;-88
2023/05/04 09:44:32;;;;;;;;;;;;;;;15.92;51.90;99189.26;107711;1308;123947;-88
2023/05/04 09:47:54;;;;;;;;;;;;;;;;;;;;;
2023/05/04 09:51:19;;;;;;;;;;;;;;;;;;;;;
2023/05/04 09:54:47;;;;;;;;;;;;;;;;;;;;;
2023/05/04 09:57:56;;;;;;;;;;;;;;;15.40;52.35;99188.74;106916;1315;123330;-89
2023/05/04 10:01:40;;;;;;;;;;;;;;;15.37;52.11;99185.42;106461;1306;22462;-89
2023/05/04 10:04:32;;;;;;;;;;;;;;;;;;;;;
2023/05/04 10:07:30;;;;;;;;;;;;;;;15.35;52.10;99177.83;106536;1322;22696;-88
2023/05/04 10:11:09;;;;;;;;;;;;;;;15.30;52.56;99179.37;106362;1322;123284;-89
2023/05/04 10:14:03;;;;;;;;;;;;;;;;;;;;;
2023/05/04 10:17:22;;;;;;;;;;;;;;;;;;;;;
2023/05/04 10:21:01;;;;;;;;;;;;;;;;;;;;;
2023/05/04 10:24:28;;;;;;;;;;;;;;;;;;;;;
2023/05/04 10:27:38;;;;;;;;;;;;;;;;;;;;;
2023/05/04 10:31:22;;;;;;;;;;;;;;;;;;;;;
2023/05/04 10:34:40;;;;;;;;;;;;;;;16.39;51.50;99154.41;107055;1297;123317;-88
2023/05/04 10:37:24;;;;;;;;;;;;;;;;;;;;;
2023/05/04 10:41:22;;;;;;;;;;;;;;;17.04;49.29;99150.55;106690;1319;23289;-92
2023/05/04 10:43:52;;;;;;;;;;;;;;;17.29;47.70;99148.35;106640;1300;22572;-89
2023/05/04 10:46:55;;;;;;;;;;;;;;;;;;;;;
2023/05/04 10:50:09;;;;;;;;;;;;;;;;;;;;;
2023/05/04 10:53:31;;;;;;;;;;;;;;;;;;;;;
2023/05/04 10:56:52;;;;;;;;;;;;;;;17.11;47.65;99144.09;106985;1311;123876;-88
2023/05/04 11:00:59;;;;;;;;;;;;;;;16.88;47.38;99147.61;104006;1300;545980;-88
2023/05/04 11:04:27;;;;;;;;;;;;;;;16.95;47.60;99139.79;105940;1301;123107;-87
2023/05/04 11:07:22;;;;;;;;;;;;;;;17.06;46.95;99136.20;105115;1309;24216;-88
2023/05/04 11:11:18;;;;;;;;;;;;;;;;;;;;;
2023/05/04 11:14:46;;;;;;;;;;;;;;;;;;;;;
2023/05/04 11:22:07;;;;;;;;;;;;;;;17.58;47.03;99125.09;105478;1290;122578;-90
2023/05/04 11:25:17;;;;;;;;;;;;;;;17.80;46.11;99119.77;101436;1306;5465421;-89
2023/05/04 11:28:47;;;;;;;;;;;;;;;17.94;46.27;99124.56;105264;1308;123618;-88
2023/05/04 11:32:19;;;;;;;;;;;;;;;18.10;45.07;99113.69;105380;1307;22533;-89
2023/05/04 11:35:21;;;;;;;;;;;;;;;;;;;;;
2023/05/04 11:39:14;;;;;;;;;;;;;;;18.49;44.77;99101.39;105240;1307;25244;-89
2023/05/04 11:42:26;;;;;;;;;;;;;;;;;;;;;
2023/05/04 11:45:52;;;;;;;;;;;;;;;18.92;44.10;99102.95;103970;1298;545047;-90
2023/05/04 11:49:31;;;;;;;;;;;;;;;;;;;;;
2023/05/04 11:53:13;;;;;;;;;;;;;;;19.04;42.43;99089.63;106275;1302;123205;-89
2023/05/04 11:56:00;;;;;;;;;;;;;;;;;;;;;
2023/05/04 11:59:44;;;;;;;;;;;;;;;18.83;43.34;99090.45;102118;1300;5560484;-88
2023/05/04 12:02:32;;;;;;;;;;;;;;;;;;;;;
2023/05/04 12:05:12;;;;;;;;;;;;;;;;;;;;;
2023/05/04 12:08:24;;;;;;;;;;;;;;;18.86;42.66;99093.15;104496;1315;22575;-90
2023/05/04 12:11:43;;;;;;;;;;;;;;;;;;;;;
2023/05/04 12:14:33;;;;;;;;;;;;;;;;;;;;;
2023/05/04 12:18:03;;;;;;;;;;;;;;;19.22;41.71;99083.83;104483;1295;22598;-87
2023/05/04 12:21:42;;;;;;;;;;;;;;;;;;;;;
2023/05/04 12:24:56;;;;;;;;;;;;;;;;;;;;;
2023/05/04 12:28:06;;;;;;;;;;;;;;;19.54;41.09;99073.31;105199;1289;22679;-89
2023/05/04 12:30:58;;;;;;;;;;;;;;;19.71;40.96;99074.52;105298;1302;25357;-89
2023/05/04 12:33:57;;;;;;;;;;;;;;;;;;;;;
2023/05/04 12:37:09;;;;;;;;;;;;;;;;;;;;;
2023/05/04 12:39:51;;;;;;;;;;;;;;;;;;;;;
2023/05/04 12:43:02;;;;;;;;;;;;;;;;;;;;;
2023/05/04 12:46:48;;;;;;;;;;;;;;;19.59;40.05;99059.45;107413;1288;22569;-91
2023/05/04 12:50:08;;;;;;;;;;;;;;;;;;;;;
2023/05/04 12:53:21;;;;;;;;;;;;;;;;;;;;;
2023/05/04 12:57:17;;;;;;;;;;;;;;;19.92;40.57;99052.98;106968;1278;123827;-90
2023/05/04 13:00:05;;;;;;;;;;;;;;;;;;;;;
2023/05/04 13:03:12;;;;;;;;;;;;;;;20.09;39.04;99040.80;107205;1301;123801;-90
2023/05/04 13:06:33;;;;;;;;;;;;;;;;;;;;;
2023/05/04 13:10:11;;;;;;;;;;;;;;;;;;;;;
2023/05/04 13:16:47;;;;;;;;;;;;;;;;;;;;;
2023/05/04 13:19:41;;;;;;;;;;;;;;;;;;;;;
2023/05/04 13:22:50;;;;;;;;;;;;;;;20.12;38.85;99040.33;106158;1310;22565;-89
2023/05/04 13:26:46;;;;;;;;;;;;;;;20.20;38.45;99036.48;105793;1300;123806;-88
2023/05/04 13:30:02;;;;;;;;;;;;;;;20.25;38.66;99026.35;105914;1292;22550;-90
2023/05/04 13:32:36;;;;;;;;;;;;;;;20.31;39.29;99021.67;105863;1302;123513;-87
2023/05/04 13:35:55;;;;;;;;;;;;;;;;;;;;;
2023/05/04 13:39:07;;;;;;;;;;;;;;;;;;;;;
2023/05/04 13:41:54;;;;;;;;;;;;;;;;;;;;;
2023/05/04 13:45:20;;;;;;;;;;;;;;;;;;;;;
2023/05/04 13:48:54;;;;;;;;;;;;;;;20.58;37.28;99002.58;105243;1285;25416;-89
2023/05/04 13:52:43;;;;;;;;;;;;;;;20.52;36.57;98997.45;106022;1303;123388;-87
2023/05/04 13:55:18;;;;;;;;;;;;;;;;;;;;;
2023/05/04 13:58:45;;;;;;;;;;;;;;;20.54;37.52;98985.08;106111;1304;22543;-88
2023/05/04 14:01:17;;;;;;;;;;;;;;;20.43;37.76;98985.95;105883;1288;22521;-88
2023/05/04 14:04:21;;;;;;;;;;;;;;;;;;;;;
2023/05/04 14:08:10;;;;;;;;;;;;;;;20.54;37.75;98979.34;106181;1302;22610;-89
2023/05/04 14:11:30;;;;;;;;;;;;;;;20.54;37.68;98976.45;106170;1280;22583;-88
2023/05/04 14:14:22;;;;;;;;;;;;;;;;;;;;;
2023/05/04 14:17:40;;;;;;;;;;;;;;;;;;;;;
2023/05/04 14:21:27;;;;;;;;;;;;;;;20.43;36.52;98972.06;106449;1283;123577;-86
2023/05/04 14:24:39;;;;;;;;;;;;;;;;;;;;;
2023/05/04 14:27:59;;;;;;;;;;;;;;;;;;;;;
2023/05/04 14:31:07;;;;;;;;;;;;;;;;;;;;;
2023/05/04 14:34:22;;;;;;;;;;;;;;;;;;;;;
2023/05/04 14:37:16;;;;;;;;;;;;;;;;;;;;;
2023/05/04 14:40:57;;;;;;;;;;;;;;;;;;;;;
2023/05/04 14:44:19;;;;;;;;;;;;;;;20.31;37.61;98966.19;104168;1322;22656;-87
2023/05/04 14:47:13;;;;;;;;;;;;;;;;;;;;;
2023/05/04 14:50:15;;;;;;;;;;;;;;;;;;;;;
2023/05/04 14:53:51;;;;;;;;;;;;;;;;;;;;;
2023/05/04 14:56:52;;;;;;;;;;;;;;;;;;;;;
2023/05/04 15:00:23;;;;;;;;;;;;;;;;;;;;;
2023/05/04 15:03:20;;;;;;;;;;;;;;;20.75;37.22;98951.73;104254;1302;123964;-88
2023/05/04 15:07:19;;;;;;;;;;;;;;;20.71;37.36;98952.92;104196;1322;23890;-88
2023/05/04 15:10:07;;;;;;;;;;;;;;;;;;;;;
2023/05/04 15:13:20;;;;;;;;;;;;;;;;;;;;;
2023/05/04 15:17:14;;;;;;;;;;;;;;;20.85;36.24;98956.04;104502;1314;124412;-88
2023/05/04 15:20:18;;;;;;;;;;;;;;;20.78;35.72;98954.39;104484;1314;24285;-87
2023/05/04 15:23:35;;;;;;;;;;;;;;;;;;;;;
2023/05/04 15:27:01;;;;;;;;;;;;;;;;;;;;;
2023/05/04 15:30:29;;;;;;;;;;;;;;;20.46;37.16;98950.66;104323;1321;22596;-88
2023/05/04 15:33:48;;;;;;;;;;;;;;;;;;;;;
2023/05/04 15:37:28;;;;;;;;;;;;;;;;;;;;;
2023/05/04 15:41:04;;;;;;;;;;;;;;;20.51;36.88;98946.11;103595;1326;124144;-88
2023/05/04 15:44:09;;;;;;;;;;;;;;;;;;;;;
2023/05/04 15:50:37;;;;;;;;;;;;;;;;;;;;;
2023/05/04 15:53:47;;;;;;;;;;;;;;;;;;;;;
2023/05/04 15:57:31;;;;;;;;;;;;;;;20.28;36.81;98930.77;104101;1319;123976;-88
2023/05/04 16:00:28;;;;;;;;;;;;;;;;;;;;;
2023/05/04 16:03:46;;;;;;;;;;;;;;;;;;;;;
2023/05/04 16:07:03;;;;;;;;;;;;;;;;;;;;;
2023/05/04 16:14:24;;;;;;;;;;;;;;;;;;;;;
2023/05/04 16:17:37;;;;;;;;;;;;;;;;;;;;;
2023/05/04 16:21:11;;;;;;;;;;;;;;;;;;;;;
2023/05/04 16:24:22;;;;;;;;;;;;;;;20.68;35.64;98910.48;106824;1274;22468;-88
2023/05/04 16:28:20;;;;;;;;;;;;;;;20.65;36.73;98908.13;102923;1289;5440374;-87
2023/05/04 16:31:50;;;;;;;;;;;;;;;20.74;36.28;98908.56;106873;1290;22527;-88
2023/05/04 16:34:48;;;;;;;;;;;;;;;;;;;;;
2023/05/04 16:38:20;;;;;;;;;;;;;;;;;;;;;
2023/05/04 16:41:48;;;;;;;;;;;;;;;;;;;;;
2023/05/04 16:44:57;;;;;;;;;;;;;;;;;;;;;
2023/05/04 16:48:44;;;;;;;;;;;;;;;22.10;35.61;98908.05;106253;1299;24237;-88
2023/05/04 16:51:38;;;;;;;;;;;;;;;;;;;;;
2023/05/04 16:55:37;;;;;;;;;;;;;;;23.35;32.78;98899.23;105919;1280;25414;-90
2023/05/04 16:59:05;;;;;;;;;;;;;;;23.50;32.66;98900.83;105078;1307;123473;-86
2023/05/04 17:02:10;;;;;;;;;;;;;;;23.60;32.33;98901.16;104764;1311;24052;-88
2023/05/04 17:05:31;;;;;;;;;;;;;;;;;;;;;
2023/05/04 17:09:36;;;;;;;;;;;;;;;22.95;33.07;98905.58;104276;1314;123661;-87
2023/05/04 17:12:23;;;;;;;;;;;;;;;;;;;;;
2023/05/04 17:19:23;;;;;;;;;;;;;;;22.12;34.46;98912.73;105146;1300;22633;-87
2023/05/04 17:22:50;;;;;;;;;;;;;;;21.49;35.45;98913.97;105810;1307;124081;-89
2023/05/04 17:26:27;;;;;;;;;;;;;;;20.70;36.86;98912.53;105817;1289;22550;-87
2023/05/04 17:29:47;;;;;;;;;;;;;;;;;;;;;
2023/05/04 17:33:30;;;;;;;;;;;;;;;19.23;39.23;98924.65;106432;1293;123403;-88
2023/05/04 17:40:33;;;;;;;;;;;;;;;;;;;;;
2023/05/04 17:46:45;;;;;;;;;;;;;;;;;;;;;
2023/05/04 17:50:23;;;;;;;;;;;;;;;;;;;;;
2023/05/04 17:53:40;;;;;;;;;;;;;;;16.28;45.42;98940.34;105005;1315;22590;-88
2023/05/04 17:57:21;;;;;;;;;;;;;;;;;;;;;
2023/05/04 18:01:13;;;;;;;;;;;;;;;15.56;47.14;98940.58;104916;1309;23408;-87
2023/05/04 18:04:34;;;;;;;;;;;;;;;15.30;48.05;98945.24;104304;1310;124403;-88
2023/05/04 18:07:21;;;;;;;;;;;;;;;;;;;;;
2023/05/04 18:10:39;;;;;;;;;;;;;;;;;;;;;
2023/05/04 18:13:55;;;;;;;;;;;;;;;;;;;;;
2023/05/04 18:18:01;;;;;;;;;;;;;;;14.22;51.36;98965.61;103807;1326;23945;-87
2023/05/04 18:25:37;;;;;;;;;;;;;;;13.76;52.88;98984.10;104348;1316;545598;-86
2023/05/04 18:29:07;;;;;;;;;;;;;;;13.55;52.88;98987.45;106524;1293;122762;-89
2023/05/04 18:32:34;;;;;;;;;;;;;;;13.40;53.10;98991.89;106874;1295;22730;-87
2023/05/04 18:36:03;;;;;;;;;;;;;;;13.25;53.46;98993.92;107131;1277;24215;-87
2023/05/04 18:46:31;;;;;;;;;;;;;;;12.88;55.36;99003.39;105725;1290;123264;-87
2023/05/04 18:49:58;;;;;;;;;;;;;;;12.79;55.59;99004.48;104990;1309;22645;-90
2023/05/04 18:56:28;;;;;;;;;;;;;;;12.56;57.33;98993.08;103353;1316;23044;-88
2023/05/04 19:04:31;;;;;;;;;;;;;;;12.42;58.34;98995.21;104193;1303;545101;-88
2023/05/04 19:07:58;;;;;;;;;;;;;;;12.26;58.95;98992.19;105889;1300;23579;-87
2023/05/04 19:15:06;;;;;;;;;;;;;;;12.03;58.81;98991.70;104499;1302;22612;-86
2023/05/04 19:29:09;;;;;;;;;;;;;;;;;;;;;
2023/05/04 19:36:31;;;;;;;;;;;;;;;11.47;60.05;98994.23;106927;1295;25437;-86
2023/05/04 19:39:51;;;;;;;;;;;;;;;11.44;60.10;98995.48;105764;1297;25486;-86
2023/05/04 19:43:21;;;;;;;;;;;;;;;;;;;;;
2023/05/04 19:46:47;;;;;;;;;;;;;;;;;;;;;
2023/05/04 19:49:31;;;;;;;;;;;;;;;;;;;;;
2023/05/04 19:52:57;;;;;;;;;;;;;;;11.30;60.14;98988.17;104759;1309;123214;-86
2023/05/04 19:56:00;;;;;;;;;;;;;;;;;;;;;
2023/05/04 20:14:35;;;;;;;;;;;;;;;11.00;60.90;98969.85;105723;1303;22541;-86
2023/05/04 20:21:06;;;;;;;;;;;;;;;10.87;60.18;98966.05;101755;1310;5475675;-86
2023/05/04 20:25:04;;;;;;;;;;;;;;;10.80;60.55;98965.98;104799;1324;22576;-87
2023/05/04 20:36:01;;;;;;;;;;;;;;;10.64;61.41;98959.69;104431;1319;544944;-87
2023/05/04 20:39:05;;;;;;;;;;;;;;;10.56;62.04;98954.96;106535;1303;22843;-87
2023/05/04 20:42:57;;;;;;;;;;;;;;;10.52;62.16;98951.41;105968;1309;22570;-86
2023/05/04 20:46:24;;;;;;;;;;;;;;;10.46;62.57;98949.10;105531;1289;122196;-85
2023/05/04 20:53:18;;;;;;;;;;;;;;;10.34;63.18;98951.28;104509;1320;123431;-86
2023/05/04 21:03:58;;;;;;;;;;;;;;;10.21;64.77;98952.96;105099;1298;544397;-86
2023/05/04 21:07:28;;;;;;;;;;;;;;;10.15;65.06;98951.87;108125;1282;22537;-86
2023/05/04 21:24:49;;;;;;;;;;;;;;;9.98;64.88;98946.23;105671;1292;140329;-85
2023/05/04 21:27:51;;;;;;;;;;;;;;;9.96;65.27;98949.39;105785;1309;22485;-87
2023/05/04 21:31:46;;;;;;;;;;;;;;;9.92;65.60;98948.57;105213;1312;23687;-87
2023/05/04 21:38:33;;;;;;;;;;;;;;;9.85;66.25;98943.41;104848;1317;545543;-87
2023/05/04 21:42:42;;;;;;;;;;;;;;;9.80;66.36;98939.09;106106;1302;123366;-89
2023/05/04 21:49:40;;;;;;;;;;;;;;;9.73;65.86;98939.52;105913;1290;24054;-88
2023/05/04 21:52:54;;;;;;;;;;;;;;;9.71;66.48;98941.27;101657;1306;5442282;-88
2023/05/04 21:56:01;;;;;;;;;;;;;;;;;;;;;
2023/05/04 21:59:22;;;;;;;;;;;;;;;;;;;;;
2023/05/04 22:03:06;;;;;;;;;;;;;;;9.61;65.95;98938.10;105059;1313;26509;-88
2023/05/04 22:06:01;;;;;;;;;;;;;;;;;;;;;
2023/05/04 22:13:08;;;;;;;;;;;;;;;9.55;67.00;98934.40;104844;1317;22549;-87
2023/05/04 22:19:48;;;;;;;;;;;;;;;;;;;;;
2023/05/04 22:26:56;;;;;;;;;;;;;;;9.46;67.28;98932.65;104290;1323;25439;-90
2023/05/04 22:30:24;;;;;;;;;;;;;;;9.43;66.86;98930.52;104072;1308;123225;-87
2023/05/04 22:33:50;;;;;;;;;;;;;;;9.39;66.90;98928.02;104208;1326;22674;-89
2023/05/04 22:36:50;;;;;;;;;;;;;;;9.36;67.78;98930.13;104528;1324;23230;-88
2023/05/04 22:43:18;;;;;;;;;;;;;;;9.29;67.48;98926.61;103555;1330;22562;-87
2023/05/04 22:58:14;;;;;;;;;;;;;;;9.23;67.68;98923.15;104955;1323;22686;-88
2023/05/04 23:01:16;;;;;;;;;;;;;;;9.20;67.52;98917.76;103399;1310;22570;-87
2023/05/04 23:09:10;;;;;;;;;;;;;;;9.16;68.17;98910.77;104358;1301;544458;-86
2023/05/04 23:12:38;;;;;;;;;;;;;;;9.09;67.34;98905.11;105949;1301;122741;-88
2023/05/04 23:15:23;;;;;;;;;;;;;;;9.04;67.27;98903.95;105694;1306;22533;-86
2023/05/04 23:18:57;;;;;;;;;;;;;;;8.99;67.06;98908.30;105695;1287;122579;-86
2023/05/04 23:25:25;;;;;;;;;;;;;;;;;;;;;
2023/05/04 23:32:21;;;;;;;;;;;;;;;8.96;68.40;98901.35;104323;1320;22883;-86
2023/05/04 23:35:53;;;;;;;;;;;;;;;;;;;;;
2023/05/04 23:39:19;;;;;;;;;;;;;;;;;;;;;
2023/05/04 23:43:00;;;;;;;;;;;;;;;8.92;68.54;98896.45;103918;1325;121836;-86
2023/05/04 23:46:17;;;;;;;;;;;;;;;8.91;68.64;98891.20;103561;1330;25571;-86
2023/05/04 23:49:53;;;;;;;;;;;;;;;;;;;;;
2023/05/04 23:56:20;;;;;;;;;;;;;;;8.86;68.51;98897.89;103076;1333;22594;-86
2023/05/04 23:59:46;;;;;;;;;;;;;;;8.86;69.04;98896.89;102939;1319;123857;-86
